sensor_id;sensor_type;location;lat;lon;timestamp;pressure;altitude;pressure_sealevel;temperature;humidity
45541;BME280;31265;49.680;8.608;2023-04-23T00:01:16;99888.09;;;12.20;100.00
45541;BME280;31265;49.680;8.608;2023-04-23T00:03:46;99889.84;;;12.16;100.00
45541;BME280;31265;49.680;8.608;2023-04-23T00:06:16;99884.28;;;12.16;100.00
45541;BME280;31265;49.680;8.608;2023-04-23T00:08:50;99885.47;;;12.13;100.00
45541;BME280;31265;49.680;8.608;2023-04-23T00:11:24;99888.81;;;12.11;100.00
45541;BME280;31265;49.680;8.608;2023-04-23T00:13:53;99888.09;;;12.11;100.00
45541;BME280;31265;49.680;8.608;2023-04-23T00:16:22;99888.81;;;12.11;100.00
45541;BME280;31265;49.680;8.608;2023-04-23T00:18:53;99896.03;;;12.14;100.00
45541;BME280;31265;49.680;8.608;2023-04-23T00:21:25;99895.00;;;12.19;100.00
45541;BME280;31265;49.680;8.608;2023-04-23T00:23:53;99887.38;;;12.20;100.00
45541;BME280;31265;49.680;8.608;2023-04-23T00:26:24;99896.31;;;12.18;100.00
45541;BME280;31265;49.680;8.608;2023-04-23T00:28:53;99896.16;;;12.16;100.00
45541;BME280;31265;49.680;8.608;2023-04-23T00:31:21;99894.69;;;12.15;100.00
45541;BME280;31265;49.680;8.608;2023-04-23T00:33:53;99890.00;;;12.18;100.00
45541;BME280;31265;49.680;8.608;2023-04-23T00:36:23;99893.53;;;12.18;100.00
45541;BME280;31265;49.680;8.608;2023-04-23T00:38:52;99897.47;;;12.15;100.00
45541;BME280;31265;49.680;8.608;2023-04-23T00:41:22;99900.56;;;12.19;100.00
45541;BME280;31265;49.680;8.608;2023-04-23T00:43:56;99902.47;;;12.17;100.00
45541;BME280;31265;49.680;8.608;2023-04-23T00:46:25;99900.69;;;12.12;100.00
45541;BME280;31265;49.680;8.608;2023-04-23T00:48:54;99901.84;;;12.09;100.00
45541;BME280;31265;49.680;8.608;2023-04-23T00:51:22;99894.53;;;12.03;100.00
45541;BME280;31265;49.680;8.608;2023-04-23T00:53:52;99901.41;;;12.02;100.00
45541;BME280;31265;49.680;8.608;2023-04-23T00:56:21;99900.38;;;11.98;100.00
45541;BME280;31265;49.680;8.608;2023-04-23T00:58:50;99898.03;;;11.94;100.00
45541;BME280;31265;49.680;8.608;2023-04-23T01:01:21;99908.41;;;11.94;100.00
45541;BME280;31265;49.680;8.608;2023-04-23T01:03:50;99897.88;;;11.92;100.00
45541;BME280;31265;49.680;8.608;2023-04-23T01:06:20;99898.03;;;11.94;100.00
45541;BME280;31265;49.680;8.608;2023-04-23T01:08:51;99911.03;;;11.92;100.00
45541;BME280;31265;49.680;8.608;2023-04-23T01:11:19;99908.84;;;11.90;100.00
45541;BME280;31265;49.680;8.608;2023-04-23T01:13:48;99904.59;;;11.89;100.00
45541;BME280;31265;49.680;8.608;2023-04-23T01:16:17;99906.78;;;11.91;100.00
45541;BME280;31265;49.680;8.608;2023-04-23T01:18:48;99901.09;;;11.89;100.00
45541;BME280;31265;49.680;8.608;2023-04-23T01:21:18;99900.50;;;11.90;100.00
45541;BME280;31265;49.680;8.608;2023-04-23T01:23:48;99903.28;;;11.90;100.00
45541;BME280;31265;49.680;8.608;2023-04-23T01:26:19;99909.56;;;11.91;100.00
45541;BME280;31265;49.680;8.608;2023-04-23T01:28:47;99912.94;;;11.89;100.00
45541;BME280;31265;49.680;8.608;2023-04-23T01:31:16;99915.88;;;11.91;100.00
45541;BME280;31265;49.680;8.608;2023-04-23T01:33:46;99920.84;;;11.93;100.00
45541;BME280;31265;49.680;8.608;2023-04-23T01:36:15;99926.25;;;11.91;100.00
45541;BME280;31265;49.680;8.608;2023-04-23T01:38:45;99931.81;;;11.91;100.00
45541;BME280;31265;49.680;8.608;2023-04-23T01:41:15;99926.97;;;11.91;100.00
45541;BME280;31265;49.680;8.608;2023-04-23T01:43:44;99927.97;;;11.86;100.00
45541;BME280;31265;49.680;8.608;2023-04-23T01:46:13;99923.72;;;11.85;100.00
45541;BME280;31265;49.680;8.608;2023-04-23T01:48:42;99923.41;;;11.81;100.00
45541;BME280;31265;49.680;8.608;2023-04-23T01:51:12;99931.59;;;11.79;100.00
45541;BME280;31265;49.680;8.608;2023-04-23T01:53:40;99935.56;;;11.76;100.00
45541;BME280;31265;49.680;8.608;2023-04-23T01:56:09;99938.31;;;11.76;100.00
45541;BME280;31265;49.680;8.608;2023-04-23T01:58:39;99932.03;;;11.75;100.00
45541;BME280;31265;49.680;8.608;2023-04-23T02:01:08;99927.50;;;11.70;100.00
45541;BME280;31265;49.680;8.608;2023-04-23T02:03:37;99931.72;;;11.71;100.00
45541;BME280;31265;49.680;8.608;2023-04-23T02:06:06;99942.13;;;11.71;100.00
45541;BME280;31265;49.680;8.608;2023-04-23T02:08:38;99946.22;;;11.70;100.00
45541;BME280;31265;49.680;8.608;2023-04-23T02:11:07;99941.81;;;11.67;100.00
45541;BME280;31265;49.680;8.608;2023-04-23T02:13:35;99945.34;;;11.67;100.00
45541;BME280;31265;49.680;8.608;2023-04-23T02:16:08;99946.31;;;11.62;100.00
45541;BME280;31265;49.680;8.608;2023-04-23T02:18:36;99939.88;;;11.59;100.00
45541;BME280;31265;49.680;8.608;2023-04-23T02:21:05;99945.59;;;11.61;100.00
45541;BME280;31265;49.680;8.608;2023-04-23T02:23:33;99944.13;;;11.60;100.00
45541;BME280;31265;49.680;8.608;2023-04-23T02:26:01;99947.47;;;11.59;100.00
45541;BME280;31265;49.680;8.608;2023-04-23T02:28:30;99945.28;;;11.57;100.00
45541;BME280;31265;49.680;8.608;2023-04-23T02:30:58;99950.41;;;11.61;100.00
45541;BME280;31265;49.680;8.608;2023-04-23T02:33:28;99941.63;;;11.55;100.00
45541;BME280;31265;49.680;8.608;2023-04-23T02:35:57;99938.97;;;11.57;100.00
45541;BME280;31265;49.680;8.608;2023-04-23T02:38:26;99943.53;;;11.52;100.00
45541;BME280;31265;49.680;8.608;2023-04-23T02:40:55;99951.84;;;11.52;100.00
45541;BME280;31265;49.680;8.608;2023-04-23T02:43:23;99944.66;;;11.49;100.00
45541;BME280;31265;49.680;8.608;2023-04-23T02:45:53;99958.88;;;11.53;100.00
45541;BME280;31265;49.680;8.608;2023-04-23T02:48:22;99955.78;;;11.49;100.00
45541;BME280;31265;49.680;8.608;2023-04-23T02:50:56;99956.94;;;11.46;100.00
45541;BME280;31265;49.680;8.608;2023-04-23T02:53:25;99947.28;;;11.47;100.00
45541;BME280;31265;49.680;8.608;2023-04-23T02:55:54;99952.53;;;11.43;100.00
45541;BME280;31265;49.680;8.608;2023-04-23T02:58:23;99952.69;;;11.45;100.00
45541;BME280;31265;49.680;8.608;2023-04-23T03:00:54;99945.81;;;11.46;100.00
45541;BME280;31265;49.680;8.608;2023-04-23T03:03:29;99931.59;;;11.42;100.00
45541;BME280;31265;49.680;8.608;2023-04-23T03:06:03;99936.03;;;11.45;100.00
45541;BME280;31265;49.680;8.608;2023-04-23T03:08:32;99943.03;;;11.46;100.00
45541;BME280;31265;49.680;8.608;2023-04-23T03:11:01;99945.66;;;11.44;100.00
45541;BME280;31265;49.680;8.608;2023-04-23T03:13:29;99947.28;;;11.47;100.00
45541;BME280;31265;49.680;8.608;2023-04-23T03:15:58;99939.53;;;11.46;100.00
45541;BME280;31265;49.680;8.608;2023-04-23T03:18:26;99942.72;;;11.42;100.00
45541;BME280;31265;49.680;8.608;2023-04-23T03:20:55;99949.91;;;11.45;100.00
45541;BME280;31265;49.680;8.608;2023-04-23T03:23:25;99948.44;;;11.44;100.00
45541;BME280;31265;49.680;8.608;2023-04-23T03:25:55;99951.81;;;11.43;100.00
45541;BME280;31265;49.680;8.608;2023-04-23T03:28:24;99949.16;;;11.45;100.00
45541;BME280;31265;49.680;8.608;2023-04-23T03:30:52;99958.09;;;11.43;100.00
45541;BME280;31265;49.680;8.608;2023-04-23T03:33:21;99952.38;;;11.41;100.00
45541;BME280;31265;49.680;8.608;2023-04-23T03:35:52;99948.13;;;11.40;100.00
45541;BME280;31265;49.680;8.608;2023-04-23T03:38:28;99958.66;;;11.41;100.00
45541;BME280;31265;49.680;8.608;2023-04-23T03:40:57;99953.84;;;11.42;100.00
45541;BME280;31265;49.680;8.608;2023-04-23T03:43:26;99958.81;;;11.44;100.00
45541;BME280;31265;49.680;8.608;2023-04-23T03:46:03;99958.81;;;11.44;100.00
45541;BME280;31265;49.680;8.608;2023-04-23T03:48:37;99954.16;;;11.46;100.00
45541;BME280;31265;49.680;8.608;2023-04-23T03:51:12;99958.09;;;11.43;100.00
45541;BME280;31265;49.680;8.608;2023-04-23T03:53:48;99960.16;;;11.43;100.00
45541;BME280;31265;49.680;8.608;2023-04-23T03:56:34;99959.38;;;11.42;100.00
45541;BME280;31265;49.680;8.608;2023-04-23T03:59:22;99956.59;;;11.42;100.00
45541;BME280;31265;49.680;8.608;2023-04-23T04:02:05;99960.88;;;11.43;100.00
45541;BME280;31265;49.680;8.608;2023-04-23T04:04:33;99960.72;;;11.41;100.00
45541;BME280;31265;49.680;8.608;2023-04-23T04:07:02;99957.38;;;11.43;100.00
45541;BME280;31265;49.680;8.608;2023-04-23T04:09:33;99948.53;;;11.36;100.00
45541;BME280;31265;49.680;8.608;2023-04-23T04:12:02;99946.66;;;11.39;100.00
45541;BME280;31265;49.680;8.608;2023-04-23T04:14:33;99952.94;;;11.39;100.00
45541;BME280;31265;49.680;8.608;2023-04-23T04:17:03;99950.75;;;11.38;100.00
45541;BME280;31265;49.680;8.608;2023-04-23T04:19:31;99953.53;;;11.38;100.00
45541;BME280;31265;49.680;8.608;2023-04-23T04:21:59;99958.94;;;11.36;100.00
45541;BME280;31265;49.680;8.608;2023-04-23T04:24:28;99952.66;;;11.35;100.00
45541;BME280;31265;49.680;8.608;2023-04-23T04:26:59;99967.25;;;11.36;100.00
45541;BME280;31265;49.680;8.608;2023-04-23T04:29:28;99959.66;;;11.36;100.00
45541;BME280;31265;49.680;8.608;2023-04-23T04:31:57;99970.38;;;11.40;100.00
45541;BME280;31265;49.680;8.608;2023-04-23T04:34:27;99965.09;;;11.44;100.00
45541;BME280;31265;49.680;8.608;2023-04-23T04:36:58;99965.69;;;11.43;100.00
45541;BME280;31265;49.680;8.608;2023-04-23T04:39:28;99966.38;;;11.33;100.00
45541;BME280;31265;49.680;8.608;2023-04-23T04:41:56;99963.00;;;11.35;100.00
45541;BME280;31265;49.680;8.608;2023-04-23T04:44:27;99973.22;;;11.32;100.00
45541;BME280;31265;49.680;8.608;2023-04-23T04:46:55;99975.75;;;11.38;100.00
45541;BME280;31265;49.680;8.608;2023-04-23T04:49:26;99969.00;;;11.31;100.00
45541;BME280;31265;49.680;8.608;2023-04-23T04:51:57;99965.47;;;11.31;100.00
45541;BME280;31265;49.680;8.608;2023-04-23T04:54:25;99961.81;;;11.28;100.00
45541;BME280;31265;49.680;8.608;2023-04-23T04:56:54;99973.66;;;11.29;100.00
45541;BME280;31265;49.680;8.608;2023-04-23T04:59:22;99969.41;;;11.28;100.00
45541;BME280;31265;49.680;8.608;2023-04-23T05:01:53;99968.56;;;11.35;100.00
45541;BME280;31265;49.680;8.608;2023-04-23T05:04:22;99969.56;;;11.30;100.00
45541;BME280;31265;49.680;8.608;2023-04-23T05:06:53;99971.59;;;11.29;100.00
45541;BME280;31265;49.680;8.608;2023-04-23T05:09:21;99975.53;;;11.26;100.00
45541;BME280;31265;49.680;8.608;2023-04-23T05:11:52;99986.66;;;11.26;100.00
45541;BME280;31265;49.680;8.608;2023-04-23T05:14:20;99983.44;;;11.30;100.00
45541;BME280;31265;49.680;8.608;2023-04-23T05:16:49;99990.06;;;11.34;100.00
45541;BME280;31265;49.680;8.608;2023-04-23T05:19:18;99987.88;;;11.33;100.00
45541;BME280;31265;49.680;8.608;2023-04-23T05:21:48;99983.38;;;11.37;100.00
45541;BME280;31265;49.680;8.608;2023-04-23T05:24:16;99981.59;;;11.42;100.00
45541;BME280;31265;49.680;8.608;2023-04-23T05:26:45;99981.94;;;11.46;100.00
45541;BME280;31265;49.680;8.608;2023-04-23T05:29:16;99969.94;;;11.44;100.00
45541;BME280;31265;49.680;8.608;2023-04-23T05:31:51;99976.38;;;11.46;100.00
45541;BME280;31265;49.680;8.608;2023-04-23T05:34:21;99973.91;;;11.50;100.00
45541;BME280;31265;49.680;8.608;2023-04-23T05:36:49;99967.59;;;11.40;100.00
45541;BME280;31265;49.680;8.608;2023-04-23T05:39:20;99965.78;;;11.35;100.00
45541;BME280;31265;49.680;8.608;2023-04-23T05:41:49;99971.94;;;11.33;100.00
45541;BME280;31265;49.680;8.608;2023-04-23T05:44:18;99964.06;;;11.39;100.00
45541;BME280;31265;49.680;8.608;2023-04-23T05:46:46;99969.19;;;11.43;100.00
45541;BME280;31265;49.680;8.608;2023-04-23T05:49:15;99970.88;;;11.56;100.00
45541;BME280;31265;49.680;8.608;2023-04-23T05:51:45;99968.59;;;11.72;100.00
45541;BME280;31265;49.680;8.608;2023-04-23T05:54:13;99957.56;;;11.91;100.00
45541;BME280;31265;49.680;8.608;2023-04-23T05:56:42;99966.56;;;12.09;100.00
45541;BME280;31265;49.680;8.608;2023-04-23T05:59:10;99963.34;;;12.13;100.00
45541;BME280;31265;49.680;8.608;2023-04-23T06:01:38;99964.66;;;12.21;100.00
45541;BME280;31265;49.680;8.608;2023-04-23T06:04:07;99964.78;;;12.14;100.00
45541;BME280;31265;49.680;8.608;2023-04-23T06:06:36;99963.31;;;12.03;100.00
45541;BME280;31265;49.680;8.608;2023-04-23T06:09:06;99960.09;;;12.07;100.00
45541;BME280;31265;49.680;8.608;2023-04-23T06:11:35;99956.88;;;12.00;100.00
45541;BME280;31265;49.680;8.608;2023-04-23T06:14:03;99959.81;;;12.12;100.00
45541;BME280;31265;49.680;8.608;2023-04-23T06:16:32;99963.03;;;12.18;100.00
45541;BME280;31265;49.680;8.608;2023-04-23T06:19:02;99958.69;;;12.25;100.00
45541;BME280;31265;49.680;8.608;2023-04-23T06:21:32;99957.50;;;12.28;100.00
45541;BME280;31265;49.680;8.608;2023-04-23T06:24:02;99967.47;;;12.31;100.00
45541;BME280;31265;49.680;8.608;2023-04-23T06:26:34;99971.56;;;12.30;100.00
45541;BME280;31265;49.680;8.608;2023-04-23T06:29:10;99978.84;;;12.16;100.00
45541;BME280;31265;49.680;8.608;2023-04-23T06:31:50;99966.88;;;12.23;100.00
45541;BME280;31265;49.680;8.608;2023-04-23T06:34:20;99960.56;;;12.22;100.00
45541;BME280;31265;49.680;8.608;2023-04-23T06:36:50;99963.75;;;11.99;100.00
45541;BME280;31265;49.680;8.608;2023-04-23T06:39:19;99954.41;;;12.14;100.00
45541;BME280;31265;49.680;8.608;2023-04-23T06:41:50;99956.06;;;12.46;100.00
45541;BME280;31265;49.680;8.608;2023-04-23T06:44:37;99952.97;;;13.10;100.00
45541;BME280;31265;49.680;8.608;2023-04-23T06:47:09;99942.31;;;13.48;100.00
45541;BME280;31265;49.680;8.608;2023-04-23T06:49:38;99941.75;;;13.81;100.00
45541;BME280;31265;49.680;8.608;2023-04-23T06:52:07;99928.28;;;13.67;100.00
45541;BME280;31265;49.680;8.608;2023-04-23T06:54:36;99939.09;;;14.04;100.00
45541;BME280;31265;49.680;8.608;2023-04-23T06:57:07;99929.59;;;14.19;100.00
45541;BME280;31265;49.680;8.608;2023-04-23T06:59:35;99934.75;;;14.23;100.00
45541;BME280;31265;49.680;8.608;2023-04-23T07:02:03;99941.56;;;13.88;100.00
45541;BME280;31265;49.680;8.608;2023-04-23T07:04:32;99943.22;;;14.03;100.00
45541;BME280;31265;49.680;8.608;2023-04-23T07:07:00;99938.59;;;14.60;100.00
45541;BME280;31265;49.680;8.608;2023-04-23T07:09:29;99934.63;;;14.75;100.00
45541;BME280;31265;49.680;8.608;2023-04-23T07:11:59;99932.41;;;14.40;100.00
45541;BME280;31265;49.680;8.608;2023-04-23T07:14:31;99937.09;;;14.81;100.00
45541;BME280;31265;49.680;8.608;2023-04-23T07:16:59;99928.75;;;14.59;100.00
45541;BME280;31265;49.680;8.608;2023-04-23T07:19:33;99929.97;;;14.35;100.00
45541;BME280;31265;49.680;8.608;2023-04-23T07:22:01;99932.88;;;14.58;100.00
45541;BME280;31265;49.680;8.608;2023-04-23T07:24:30;99931.63;;;14.83;100.00
45541;BME280;31265;49.680;8.608;2023-04-23T07:26:58;99930.22;;;15.05;100.00
45541;BME280;31265;49.680;8.608;2023-04-23T07:29:27;99924.47;;;15.48;100.00
45541;BME280;31265;49.680;8.608;2023-04-23T07:31:57;99920.66;;;15.09;100.00
45541;BME280;31265;49.680;8.608;2023-04-23T07:34:25;99913.44;;;15.74;100.00
45541;BME280;31265;49.680;8.608;2023-04-23T07:36:54;99920.84;;;15.93;100.00
45541;BME280;31265;49.680;8.608;2023-04-23T07:39:23;99920.88;;;16.56;100.00
45541;BME280;31265;49.680;8.608;2023-04-23T07:41:51;99920.34;;;16.71;100.00
45541;BME280;31265;49.680;8.608;2023-04-23T07:44:22;99921.97;;;16.25;100.00
45541;BME280;31265;49.680;8.608;2023-04-23T07:46:57;99924.56;;;16.09;100.00
45541;BME280;31265;49.680;8.608;2023-04-23T07:49:26;99913.63;;;16.02;100.00
45541;BME280;31265;49.680;8.608;2023-04-23T07:51:55;99911.09;;;15.94;100.00
45541;BME280;31265;49.680;8.608;2023-04-23T07:54:24;99915.13;;;15.79;100.00
45541;BME280;31265;49.680;8.608;2023-04-23T07:56:52;99914.03;;;15.84;100.00
45541;BME280;31265;49.680;8.608;2023-04-23T07:59:20;99918.13;;;16.44;100.00
45541;BME280;31265;49.680;8.608;2023-04-23T08:01:54;99913.88;;;17.06;100.00
45541;BME280;31265;49.680;8.608;2023-04-23T08:04:25;99912.88;;;17.27;100.00
45541;BME280;31265;49.680;8.608;2023-04-23T08:06:54;99912.81;;;17.13;100.00
45541;BME280;31265;49.680;8.608;2023-04-23T08:09:23;99904.09;;;16.56;100.00
45541;BME280;31265;49.680;8.608;2023-04-23T08:11:51;99916.09;;;16.45;100.00
45541;BME280;31265;49.680;8.608;2023-04-23T08:14:21;99904.72;;;16.54;100.00
45541;BME280;31265;49.680;8.608;2023-04-23T08:16:50;99901.53;;;16.60;100.00
45541;BME280;31265;49.680;8.608;2023-04-23T08:19:19;99894.69;;;16.89;100.00
45541;BME280;31265;49.680;8.608;2023-04-23T08:21:49;99899.56;;;16.37;100.00
45541;BME280;31265;49.680;8.608;2023-04-23T08:24:18;99893.28;;;16.25;100.00
45541;BME280;31265;49.680;8.608;2023-04-23T08:26:50;99899.19;;;16.31;100.00
45541;BME280;31265;49.680;8.608;2023-04-23T08:29:19;99891.69;;;17.38;100.00
45541;BME280;31265;49.680;8.608;2023-04-23T08:31:47;99884.72;;;17.53;100.00
45541;BME280;31265;49.680;8.608;2023-04-23T08:34:16;99885.88;;;17.48;100.00
45541;BME280;31265;49.680;8.608;2023-04-23T08:36:45;99886.53;;;18.90;100.00
45541;BME280;31265;49.680;8.608;2023-04-23T08:39:16;99892.28;;;19.56;100.00
45541;BME280;31265;49.680;8.608;2023-04-23T08:41:52;99885.19;;;18.62;100.00
45541;BME280;31265;49.680;8.608;2023-04-23T08:44:22;99877.38;;;18.90;100.00
45541;BME280;31265;49.680;8.608;2023-04-23T08:46:55;99879.16;;;18.38;100.00
45541;BME280;31265;49.680;8.608;2023-04-23T08:49:27;99874.63;;;18.76;100.00
45541;BME280;31265;49.680;8.608;2023-04-23T08:52:14;99875.88;;;18.73;100.00
45541;BME280;31265;49.680;8.608;2023-04-23T08:54:48;99870.06;;;18.39;100.00
45541;BME280;31265;49.680;8.608;2023-04-23T08:57:18;99868.78;;;19.02;100.00
45541;BME280;31265;49.680;8.608;2023-04-23T08:59:46;99864.88;;;18.93;100.00
45541;BME280;31265;49.680;8.608;2023-04-23T09:02:15;99866.75;;;19.52;100.00
45541;BME280;31265;49.680;8.608;2023-04-23T09:04:44;99862.00;;;19.07;100.00
45541;BME280;31265;49.680;8.608;2023-04-23T09:07:17;99864.63;;;18.73;100.00
45541;BME280;31265;49.680;8.608;2023-04-23T09:09:47;99860.78;;;18.96;100.00
45541;BME280;31265;49.680;8.608;2023-04-23T09:12:16;99856.88;;;19.35;100.00
45541;BME280;31265;49.680;8.608;2023-04-23T09:14:44;99862.59;;;19.37;100.00
45541;BME280;31265;49.680;8.608;2023-04-23T09:17:13;99855.97;;;17.66;100.00
45541;BME280;31265;49.680;8.608;2023-04-23T09:19:43;99860.53;;;18.60;100.00
45541;BME280;31265;49.680;8.608;2023-04-23T09:22:13;99860.16;;;19.13;100.00
45541;BME280;31265;49.680;8.608;2023-04-23T09:24:42;99856.81;;;19.17;100.00
45541;BME280;31265;49.680;8.608;2023-04-23T09:27:18;99850.16;;;18.19;100.00
45541;BME280;31265;49.680;8.608;2023-04-23T09:29:53;99847.00;;;18.41;100.00
45541;BME280;31265;49.680;8.608;2023-04-23T09:32:30;99845.03;;;18.59;100.00
45541;BME280;31265;49.680;8.608;2023-04-23T09:35:01;99838.75;;;18.90;100.00
45541;BME280;31265;49.680;8.608;2023-04-23T09:37:30;99835.06;;;19.67;100.00
45541;BME280;31265;49.680;8.608;2023-04-23T09:39:58;99830.94;;;19.86;100.00
45541;BME280;31265;49.680;8.608;2023-04-23T09:42:29;99821.84;;;19.88;100.00
45541;BME280;31265;49.680;8.608;2023-04-23T09:45:01;99826.25;;;19.93;100.00
45541;BME280;31265;49.680;8.608;2023-04-23T09:47:31;99813.56;;;19.92;100.00
45541;BME280;31265;49.680;8.608;2023-04-23T09:50:00;99825.53;;;19.09;100.00
45541;BME280;31265;49.680;8.608;2023-04-23T09:52:30;99814.78;;;19.21;100.00
45541;BME280;31265;49.680;8.608;2023-04-23T09:55:00;99821.13;;;20.05;100.00
45541;BME280;31265;49.680;8.608;2023-04-23T09:57:34;99813.00;;;19.62;100.00
45541;BME280;31265;49.680;8.608;2023-04-23T10:00:12;99814.34;;;19.11;100.00
45541;BME280;31265;49.680;8.608;2023-04-23T10:02:45;99809.81;;;19.20;100.00
45541;BME280;31265;49.680;8.608;2023-04-23T10:05:15;99798.66;;;19.06;100.00
45541;BME280;31265;49.680;8.608;2023-04-23T10:07:52;99795.84;;;19.06;100.00
45541;BME280;31265;49.680;8.608;2023-04-23T10:10:23;99791.91;;;18.79;100.00
45541;BME280;31265;49.680;8.608;2023-04-23T10:12:54;99792.66;;;18.50;100.00
45541;BME280;31265;49.680;8.608;2023-04-23T10:15:25;99796.34;;;18.84;100.00
45541;BME280;31265;49.680;8.608;2023-04-23T10:17:56;99788.47;;;18.51;100.00
45541;BME280;31265;49.680;8.608;2023-04-23T10:20:26;99795.75;;;19.04;100.00
45541;BME280;31265;49.680;8.608;2023-04-23T10:22:56;99796.56;;;19.22;100.00
45541;BME280;31265;49.680;8.608;2023-04-23T10:25:25;99789.75;;;19.77;100.00
45541;BME280;31265;49.680;8.608;2023-04-23T10:27:57;99797.00;;;19.82;100.00
45541;BME280;31265;49.680;8.608;2023-04-23T10:30:27;99800.63;;;20.38;95.40
45541;BME280;31265;49.680;8.608;2023-04-23T10:32:56;99790.88;;;19.88;98.64
45541;BME280;31265;49.680;8.608;2023-04-23T10:35:28;99786.47;;;20.01;100.00
45541;BME280;31265;49.680;8.608;2023-04-23T10:37:58;99774.81;;;19.57;100.00
45541;BME280;31265;49.680;8.608;2023-04-23T10:40:29;99770.13;;;19.45;100.00
45541;BME280;31265;49.680;8.608;2023-04-23T10:43:00;99768.53;;;19.24;100.00
45541;BME280;31265;49.680;8.608;2023-04-23T10:45:29;99763.28;;;19.84;100.00
45541;BME280;31265;49.680;8.608;2023-04-23T10:47:59;99759.44;;;20.11;100.00
45541;BME280;31265;49.680;8.608;2023-04-23T10:50:29;99755.81;;;19.91;93.63
45541;BME280;31265;49.680;8.608;2023-04-23T10:52:57;99759.78;;;20.39;93.97
45541;BME280;31265;49.680;8.608;2023-04-23T10:55:26;99753.22;;;20.71;87.40
45541;BME280;31265;49.680;8.608;2023-04-23T10:57:55;99744.94;;;20.19;95.29
45541;BME280;31265;49.680;8.608;2023-04-23T11:00:42;99751.50;;;19.54;96.14
45541;BME280;31265;49.680;8.608;2023-04-23T11:03:31;99751.72;;;19.60;92.19
45541;BME280;31265;49.680;8.608;2023-04-23T11:06:12;99751.19;;;19.64;96.17
45541;BME280;31265;49.680;8.608;2023-04-23T11:08:52;99755.28;;;18.77;100.00
45541;BME280;31265;49.680;8.608;2023-04-23T11:11:38;99749.09;;;18.81;95.43
45541;BME280;31265;49.680;8.608;2023-04-23T11:14:10;99745.69;;;19.16;92.58
45541;BME280;31265;49.680;8.608;2023-04-23T11:16:41;99741.31;;;20.16;88.93
45541;BME280;31265;49.680;8.608;2023-04-23T11:19:10;99747.00;;;21.34;79.77
45541;BME280;31265;49.680;8.608;2023-04-23T11:21:55;99736.94;;;21.71;84.40
45541;BME280;31265;49.680;8.608;2023-04-23T11:24:27;99732.41;;;22.30;74.45
45541;BME280;31265;49.680;8.608;2023-04-23T11:26:55;99733.91;;;22.57;71.67
45541;BME280;31265;49.680;8.608;2023-04-23T11:29:25;99723.34;;;22.33;73.89
45541;BME280;31265;49.680;8.608;2023-04-23T11:31:57;99717.59;;;20.79;74.52
45541;BME280;31265;49.680;8.608;2023-04-23T11:34:31;99711.81;;;20.55;76.88
45541;BME280;31265;49.680;8.608;2023-04-23T11:37:01;99708.56;;;20.83;76.41
45541;BME280;31265;49.680;8.608;2023-04-23T11:39:31;99703.50;;;20.79;75.41
45541;BME280;31265;49.680;8.608;2023-04-23T11:42:00;99700.63;;;20.97;71.96
45541;BME280;31265;49.680;8.608;2023-04-23T11:44:32;99697.25;;;21.23;72.94
45541;BME280;31265;49.680;8.608;2023-04-23T11:47:01;99692.88;;;22.08;74.72
45541;BME280;31265;49.680;8.608;2023-04-23T11:49:31;99690.38;;;21.72;69.94
45541;BME280;31265;49.680;8.608;2023-04-23T11:51:59;99696.09;;;21.74;72.74
45541;BME280;31265;49.680;8.608;2023-04-23T11:54:28;99686.53;;;20.97;70.65
45541;BME280;31265;49.680;8.608;2023-04-23T11:56:57;99691.31;;;21.57;70.51
45541;BME280;31265;49.680;8.608;2023-04-23T11:59:27;99694.16;;;22.77;67.10
45541;BME280;31265;49.680;8.608;2023-04-23T12:01:57;99688.56;;;21.59;71.26
45541;BME280;31265;49.680;8.608;2023-04-23T12:04:29;99683.97;;;21.69;71.47
45541;BME280;31265;49.680;8.608;2023-04-23T12:07:00;99677.28;;;20.95;70.80
45541;BME280;31265;49.680;8.608;2023-04-23T12:09:45;99656.00;;;20.92;70.26
45541;BME280;31265;49.680;8.608;2023-04-23T12:12:14;99656.88;;;20.96;69.43
45541;BME280;31265;49.680;8.608;2023-04-23T12:14:42;99647.16;;;21.01;69.50
45541;BME280;31265;49.680;8.608;2023-04-23T12:17:11;99635.22;;;20.61;72.97
45541;BME280;31265;49.680;8.608;2023-04-23T12:19:42;99639.81;;;20.92;71.37
45541;BME280;31265;49.680;8.608;2023-04-23T12:22:12;99630.66;;;21.14;73.03
45541;BME280;31265;49.680;8.608;2023-04-23T12:24:45;99638.63;;;22.36;67.08
45541;BME280;31265;49.680;8.608;2023-04-23T12:27:15;99620.69;;;22.51;62.86
45541;BME280;31265;49.680;8.608;2023-04-23T12:29:46;99624.13;;;21.75;61.98
45541;BME280;31265;49.680;8.608;2023-04-23T12:32:17;99620.69;;;22.51;60.89
45541;BME280;31265;49.680;8.608;2023-04-23T12:34:54;99611.28;;;22.18;56.72
45541;BME280;31265;49.680;8.608;2023-04-23T12:37:23;99612.91;;;20.89;60.93
45541;BME280;31265;49.680;8.608;2023-04-23T12:39:53;99616.88;;;21.68;65.34
45541;BME280;31265;49.680;8.608;2023-04-23T12:42:22;99608.81;;;21.82;61.31
45541;BME280;31265;49.680;8.608;2023-04-23T12:44:51;99599.94;;;21.92;64.42
45541;BME280;31265;49.680;8.608;2023-04-23T12:47:23;99599.03;;;21.61;64.12
45541;BME280;31265;49.680;8.608;2023-04-23T12:50:07;99585.84;;;22.18;62.39
45541;BME280;31265;49.680;8.608;2023-04-23T12:52:35;99585.81;;;22.68;59.56
45541;BME280;31265;49.680;8.608;2023-04-23T12:55:04;99585.50;;;22.56;62.47
45541;BME280;31265;49.680;8.608;2023-04-23T12:57:32;99580.09;;;22.66;60.93
45541;BME280;31265;49.680;8.608;2023-04-23T13:00:05;99572.00;;;21.78;58.88
45541;BME280;31265;49.680;8.608;2023-04-23T13:02:35;99576.13;;;21.51;58.55
45541;BME280;31265;49.680;8.608;2023-04-23T13:05:07;99580.56;;;22.30;56.68
45541;BME280;31265;49.680;8.608;2023-04-23T13:07:37;99569.38;;;21.84;54.82
45541;BME280;31265;49.680;8.608;2023-04-23T13:10:07;99573.66;;;21.17;59.00